Alloy, WV

12:12 PM EDT on July 25, 2016 (GMT -0400)
KWVGLENF2 | | Change Station

Elev 676 ft 38.15 °N, 81.22 °W | Updated 11 minutes ago

Mostly Cloudy
Mostly Cloudy
90.0 °F
Feels Like 104 °F
N
0.0
Wind Variable Wind from North
Gusts 4.0 mph

Today
High -- | Low -- °F
--% Chance of Precip.
Yesterday
High -- | Low -- °F
Precip. -- in
Pressure 30.00 in
Visibility 10.0 miles
Clouds Few 2700 ft
Scattered Clouds 10000 ft
Mostly Cloudy 25000 ft
Heat Index 104 °F
Dew Point 78 °F
Humidity 67%
Rainfall 0.00 in
Snow Depth Not available.
6:22 AM 8:40 PM
Waning Gibbous, 64% visible
METAR KCRW 251554Z 22006KT 10SM FEW027 SCT100 BKN250 32/23 A3003 RMK AO2 SLP157 T03170233
Pressure 30.00 in
Visibility 10.0 miles
Clouds Few 2700 ft
Scattered Clouds 10000 ft
Mostly Cloudy 25000 ft
Heat Index 104 °F
Dew Point 78 °F
Humidity 67%
Rainfall 0.00 in
Snow Depth Not available.
6:22 AM 8:40 PM
Waning Gibbous, 64% visible
METAR KCRW 251554Z 22006KT 10SM FEW027 SCT100 BKN250 32/23 A3003 RMK AO2 SLP157 T03170233

10-Day Weather Forecast

Almanac

Astronomy

Jul. 25, 2016 Rise Set
Actual Time
Civil Twilight
Nautical Twilight
Astronomical Twilight
Moon
Length of Visible Light
Length of Day
Tomorrow will be .
, % of the Moon is Illuminated

Today's Extremes

State Highs State Lows

Community

WunderPhotos

Upload Photos

1,927,342 photos uploaded!

WunderBlog® & News

Nearby

Air Quality

  Air Quality AQ Index Pollutant
Not available.

Snow Depth

Station Depth Elevation

Earthquake Activity

City Distance Mag. Time & Date
Minimum magnitude displayed is 2.5.

Coastal Water Temperatures

Place Temperature

Stations

Nearby Weather Stations

Station Location Temp. Windchill Dew Point Humidity Wind Precip. Elev Updated Type
                   

Watches & Warnings

There are currently no watches in effect.